sensor_id;sensor_type;location;lat;lon;timestamp;P1;durP1;ratioP1;P2;durP2;ratioP2
11473;SDS011;5793;52.238;13.438;2023-12-04T00:00:40;25.93;;;14.40;;
11473;SDS011;5793;52.238;13.438;2023-12-04T00:03:08;28.13;;;14.43;;
11473;SDS011;5793;52.238;13.438;2023-12-04T00:05:36;25.37;;;14.30;;
11473;SDS011;5793;52.238;13.438;2023-12-04T00:08:04;25.30;;;14.37;;
11473;SDS011;5793;52.238;13.438;2023-12-04T00:10:32;24.57;;;13.13;;
11473;SDS011;5793;52.238;13.438;2023-12-04T00:13:00;24.70;;;13.57;;
11473;SDS011;5793;52.238;13.438;2023-12-04T00:15:28;23.47;;;12.97;;
11473;SDS011;5793;52.238;13.438;2023-12-04T00:17:57;25.63;;;14.13;;
11473;SDS011;5793;52.238;13.438;2023-12-04T00:20:25;29.33;;;14.73;;
11473;SDS011;5793;52.238;13.438;2023-12-04T00:22:53;24.80;;;13.83;;
11473;SDS011;5793;52.238;13.438;2023-12-04T00:25:22;30.60;;;15.93;;
11473;SDS011;5793;52.238;13.438;2023-12-04T00:27:50;26.90;;;14.20;;
11473;SDS011;5793;52.238;13.438;2023-12-04T00:30:18;27.57;;;13.73;;
11473;SDS011;5793;52.238;13.438;2023-12-04T00:32:45;28.13;;;14.23;;
11473;SDS011;5793;52.238;13.438;2023-12-04T00:35:15;31.87;;;15.23;;
11473;SDS011;5793;52.238;13.438;2023-12-04T00:37:42;28.13;;;13.43;;
11473;SDS011;5793;52.238;13.438;2023-12-04T00:40:10;36.73;;;15.63;;
11473;SDS011;5793;52.238;13.438;2023-12-04T00:42:38;26.77;;;14.23;;
11473;SDS011;5793;52.238;13.438;2023-12-04T00:45:06;25.57;;;13.87;;
11473;SDS011;5793;52.238;13.438;2023-12-04T00:47:35;23.93;;;13.97;;
11473;SDS011;5793;52.238;13.438;2023-12-04T00:50:03;33.53;;;16.90;;
11473;SDS011;5793;52.238;13.438;2023-12-04T00:52:33;29.73;;;15.97;;
11473;SDS011;5793;52.238;13.438;2023-12-04T00:55:01;29.23;;;15.27;;
11473;SDS011;5793;52.238;13.438;2023-12-04T00:57:28;34.73;;;15.77;;
11473;SDS011;5793;52.238;13.438;2023-12-04T00:59:56;27.90;;;15.37;;
11473;SDS011;5793;52.238;13.438;2023-12-04T01:02:24;35.43;;;15.33;;
11473;SDS011;5793;52.238;13.438;2023-12-04T01:04:52;29.63;;;15.33;;
11473;SDS011;5793;52.238;13.438;2023-12-04T01:07:20;30.63;;;15.77;;
11473;SDS011;5793;52.238;13.438;2023-12-04T01:09:49;29.23;;;15.17;;
11473;SDS011;5793;52.238;13.438;2023-12-04T01:12:17;37.30;;;17.13;;
11473;SDS011;5793;52.238;13.438;2023-12-04T01:14:44;30.23;;;15.40;;
11473;SDS011;5793;52.238;13.438;2023-12-04T01:17:12;30.60;;;15.23;;
11473;SDS011;5793;52.238;13.438;2023-12-04T01:19:40;30.57;;;14.47;;
11473;SDS011;5793;52.238;13.438;2023-12-04T01:22:08;28.33;;;14.13;;
11473;SDS011;5793;52.238;13.438;2023-12-04T01:24:35;25.90;;;13.20;;
11473;SDS011;5793;52.238;13.438;2023-12-04T01:27:05;25.37;;;14.47;;
11473;SDS011;5793;52.238;13.438;2023-12-04T01:29:32;23.57;;;13.10;;
11473;SDS011;5793;52.238;13.438;2023-12-04T01:32:01;25.03;;;14.00;;
11473;SDS011;5793;52.238;13.438;2023-12-04T01:34:29;23.73;;;12.80;;
11473;SDS011;5793;52.238;13.438;2023-12-04T01:36:57;30.27;;;15.40;;
11473;SDS011;5793;52.238;13.438;2023-12-04T01:39:25;32.10;;;15.77;;
11473;SDS011;5793;52.238;13.438;2023-12-04T01:41:53;36.10;;;16.80;;
11473;SDS011;5793;52.238;13.438;2023-12-04T01:44:22;30.07;;;15.43;;
11473;SDS011;5793;52.238;13.438;2023-12-04T01:46:50;35.47;;;17.63;;
11473;SDS011;5793;52.238;13.438;2023-12-04T01:49:18;28.73;;;14.83;;
11473;SDS011;5793;52.238;13.438;2023-12-04T01:51:46;30.97;;;15.47;;
11473;SDS011;5793;52.238;13.438;2023-12-04T01:54:15;35.13;;;16.90;;
11473;SDS011;5793;52.238;13.438;2023-12-04T01:56:43;29.57;;;15.10;;
11473;SDS011;5793;52.238;13.438;2023-12-04T01:59:11;32.00;;;15.27;;
11473;SDS011;5793;52.238;13.438;2023-12-04T02:01:41;32.23;;;15.80;;
11473;SDS011;5793;52.238;13.438;2023-12-04T02:04:09;29.97;;;15.43;;
11473;SDS011;5793;52.238;13.438;2023-12-04T02:06:37;29.53;;;15.63;;
11473;SDS011;5793;52.238;13.438;2023-12-04T02:09:07;33.90;;;16.30;;
11473;SDS011;5793;52.238;13.438;2023-12-04T02:11:38;32.10;;;16.27;;
11473;SDS011;5793;52.238;13.438;2023-12-04T02:14:06;29.03;;;14.90;;
11473;SDS011;5793;52.238;13.438;2023-12-04T02:16:35;33.40;;;18.63;;
11473;SDS011;5793;52.238;13.438;2023-12-04T02:19:08;30.40;;;16.60;;
11473;SDS011;5793;52.238;13.438;2023-12-04T02:21:40;30.30;;;15.83;;
11473;SDS011;5793;52.238;13.438;2023-12-04T02:24:09;34.83;;;16.70;;
11473;SDS011;5793;52.238;13.438;2023-12-04T02:26:39;35.83;;;17.80;;
11473;SDS011;5793;52.238;13.438;2023-12-04T02:29:13;32.93;;;16.57;;
11473;SDS011;5793;52.238;13.438;2023-12-04T02:31:47;31.73;;;16.43;;
11473;SDS011;5793;52.238;13.438;2023-12-04T02:34:18;28.80;;;15.07;;
11473;SDS011;5793;52.238;13.438;2023-12-04T02:36:48;31.13;;;15.87;;
11473;SDS011;5793;52.238;13.438;2023-12-04T02:39:17;29.33;;;15.70;;
11473;SDS011;5793;52.238;13.438;2023-12-04T02:41:46;27.63;;;15.23;;
11473;SDS011;5793;52.238;13.438;2023-12-04T02:44:13;30.03;;;14.77;;
11473;SDS011;5793;52.238;13.438;2023-12-04T02:46:41;30.37;;;15.07;;
11473;SDS011;5793;52.238;13.438;2023-12-04T02:49:09;27.80;;;15.17;;
11473;SDS011;5793;52.238;13.438;2023-12-04T02:51:39;30.60;;;15.20;;
11473;SDS011;5793;52.238;13.438;2023-12-04T02:54:08;29.27;;;15.00;;
11473;SDS011;5793;52.238;13.438;2023-12-04T02:56:37;29.07;;;15.23;;
11473;SDS011;5793;52.238;13.438;2023-12-04T02:59:05;27.30;;;14.23;;
11473;SDS011;5793;52.238;13.438;2023-12-04T03:01:32;25.20;;;14.73;;
11473;SDS011;5793;52.238;13.438;2023-12-04T03:04:00;25.73;;;14.20;;
11473;SDS011;5793;52.238;13.438;2023-12-04T03:06:28;27.77;;;15.33;;
11473;SDS011;5793;52.238;13.438;2023-12-04T03:08:56;32.47;;;16.23;;
11473;SDS011;5793;52.238;13.438;2023-12-04T03:11:26;32.40;;;15.27;;
11473;SDS011;5793;52.238;13.438;2023-12-04T03:13:56;32.27;;;16.20;;
11473;SDS011;5793;52.238;13.438;2023-12-04T03:16:24;31.03;;;16.40;;
11473;SDS011;5793;52.238;13.438;2023-12-04T03:18:51;31.50;;;16.97;;
11473;SDS011;5793;52.238;13.438;2023-12-04T03:21:19;30.23;;;15.73;;
11473;SDS011;5793;52.238;13.438;2023-12-04T03:23:47;36.60;;;17.27;;
11473;SDS011;5793;52.238;13.438;2023-12-04T03:26:15;31.90;;;15.77;;
11473;SDS011;5793;52.238;13.438;2023-12-04T03:28:43;28.83;;;15.37;;
11473;SDS011;5793;52.238;13.438;2023-12-04T03:31:12;34.60;;;17.03;;
11473;SDS011;5793;52.238;13.438;2023-12-04T03:33:40;33.03;;;17.37;;
11473;SDS011;5793;52.238;13.438;2023-12-04T03:36:08;30.33;;;15.93;;
11473;SDS011;5793;52.238;13.438;2023-12-04T03:38:36;37.47;;;18.43;;
11473;SDS011;5793;52.238;13.438;2023-12-04T03:41:03;30.63;;;15.73;;
11473;SDS011;5793;52.238;13.438;2023-12-04T03:43:31;33.70;;;17.13;;
11473;SDS011;5793;52.238;13.438;2023-12-04T03:45:59;34.37;;;17.67;;
11473;SDS011;5793;52.238;13.438;2023-12-04T03:48:28;36.23;;;18.00;;
11473;SDS011;5793;52.238;13.438;2023-12-04T03:50:56;33.13;;;17.10;;
11473;SDS011;5793;52.238;13.438;2023-12-04T03:53:24;36.27;;;18.30;;
11473;SDS011;5793;52.238;13.438;2023-12-04T03:55:52;33.30;;;16.80;;
11473;SDS011;5793;52.238;13.438;2023-12-04T03:58:20;29.33;;;15.97;;
11473;SDS011;5793;52.238;13.438;2023-12-04T04:00:48;29.10;;;15.03;;
11473;SDS011;5793;52.238;13.438;2023-12-04T04:03:16;31.07;;;16.53;;
11473;SDS011;5793;52.238;13.438;2023-12-04T04:05:45;36.97;;;19.10;;
11473;SDS011;5793;52.238;13.438;2023-12-04T04:08:12;36.63;;;17.70;;
11473;SDS011;5793;52.238;13.438;2023-12-04T04:10:40;38.97;;;18.00;;
11473;SDS011;5793;52.238;13.438;2023-12-04T04:13:08;29.27;;;15.73;;
11473;SDS011;5793;52.238;13.438;2023-12-04T04:15:36;30.80;;;15.73;;
11473;SDS011;5793;52.238;13.438;2023-12-04T04:18:04;32.27;;;16.03;;
11473;SDS011;5793;52.238;13.438;2023-12-04T04:20:32;31.53;;;16.17;;
11473;SDS011;5793;52.238;13.438;2023-12-04T04:23:01;31.53;;;16.40;;
11473;SDS011;5793;52.238;13.438;2023-12-04T04:25:29;31.33;;;16.77;;
11473;SDS011;5793;52.238;13.438;2023-12-04T04:27:57;33.20;;;17.70;;
11473;SDS011;5793;52.238;13.438;2023-12-04T04:30:25;34.90;;;17.03;;
11473;SDS011;5793;52.238;13.438;2023-12-04T04:32:53;33.13;;;16.57;;
11473;SDS011;5793;52.238;13.438;2023-12-04T04:35:21;32.70;;;17.30;;
11473;SDS011;5793;52.238;13.438;2023-12-04T04:37:49;38.07;;;19.17;;
11473;SDS011;5793;52.238;13.438;2023-12-04T04:40:18;35.03;;;17.43;;
11473;SDS011;5793;52.238;13.438;2023-12-04T04:42:46;34.93;;;18.27;;
11473;SDS011;5793;52.238;13.438;2023-12-04T04:45:14;34.53;;;17.83;;
11473;SDS011;5793;52.238;13.438;2023-12-04T04:47:42;36.80;;;17.67;;
11473;SDS011;5793;52.238;13.438;2023-12-04T04:50:10;36.60;;;17.97;;
11473;SDS011;5793;52.238;13.438;2023-12-04T04:52:37;38.47;;;19.13;;
11473;SDS011;5793;52.238;13.438;2023-12-04T04:55:05;37.17;;;19.53;;
11473;SDS011;5793;52.238;13.438;2023-12-04T04:57:35;41.90;;;18.43;;
11473;SDS011;5793;52.238;13.438;2023-12-04T05:00:03;39.57;;;19.27;;
11473;SDS011;5793;52.238;13.438;2023-12-04T05:02:32;40.23;;;19.90;;
11473;SDS011;5793;52.238;13.438;2023-12-04T05:05:02;35.73;;;19.00;;
11473;SDS011;5793;52.238;13.438;2023-12-04T05:07:31;41.13;;;21.92;;
11473;SDS011;5793;52.238;13.438;2023-12-04T05:09:58;41.50;;;22.47;;
11473;SDS011;5793;52.238;13.438;2023-12-04T05:12:26;38.97;;;19.70;;
11473;SDS011;5793;52.238;13.438;2023-12-04T05:14:56;38.97;;;19.63;;
11473;SDS011;5793;52.238;13.438;2023-12-04T05:17:23;41.07;;;21.93;;
11473;SDS011;5793;52.238;13.438;2023-12-04T05:19:51;45.33;;;21.80;;
11473;SDS011;5793;52.238;13.438;2023-12-04T05:22:19;62.78;;;35.80;;
11473;SDS011;5793;52.238;13.438;2023-12-04T05:24:47;62.97;;;29.70;;
11473;SDS011;5793;52.238;13.438;2023-12-04T05:27:15;64.53;;;31.53;;
11473;SDS011;5793;52.238;13.438;2023-12-04T05:29:42;58.93;;;29.13;;
11473;SDS011;5793;52.238;13.438;2023-12-04T05:32:11;59.13;;;29.83;;
11473;SDS011;5793;52.238;13.438;2023-12-04T05:34:40;59.67;;;29.00;;
11473;SDS011;5793;52.238;13.438;2023-12-04T05:37:08;58.43;;;29.80;;
11473;SDS011;5793;52.238;13.438;2023-12-04T05:39:35;57.53;;;28.00;;
11473;SDS011;5793;52.238;13.438;2023-12-04T05:42:03;57.10;;;29.33;;
11473;SDS011;5793;52.238;13.438;2023-12-04T05:44:31;59.40;;;29.03;;
11473;SDS011;5793;52.238;13.438;2023-12-04T05:46:59;65.27;;;32.30;;
11473;SDS011;5793;52.238;13.438;2023-12-04T05:49:28;72.17;;;36.60;;
11473;SDS011;5793;52.238;13.438;2023-12-04T05:51:57;109.77;;;51.83;;
11473;SDS011;5793;52.238;13.438;2023-12-04T05:54:24;112.97;;;54.20;;
11473;SDS011;5793;52.238;13.438;2023-12-04T05:56:52;94.23;;;45.83;;
11473;SDS011;5793;52.238;13.438;2023-12-04T05:59:20;64.00;;;31.80;;
11473;SDS011;5793;52.238;13.438;2023-12-04T06:01:48;54.10;;;27.90;;
11473;SDS011;5793;52.238;13.438;2023-12-04T06:04:16;54.83;;;29.00;;
11473;SDS011;5793;52.238;13.438;2023-12-04T06:06:45;59.47;;;29.13;;
11473;SDS011;5793;52.238;13.438;2023-12-04T06:09:13;45.73;;;23.37;;
11473;SDS011;5793;52.238;13.438;2023-12-04T06:11:42;52.70;;;26.30;;
11473;SDS011;5793;52.238;13.438;2023-12-04T06:14:12;46.63;;;24.53;;
11473;SDS011;5793;52.238;13.438;2023-12-04T06:16:40;49.63;;;27.33;;
11473;SDS011;5793;52.238;13.438;2023-12-04T06:19:08;44.87;;;23.57;;
11473;SDS011;5793;52.238;13.438;2023-12-04T06:21:36;39.77;;;21.77;;
11473;SDS011;5793;52.238;13.438;2023-12-04T06:24:06;43.93;;;24.50;;
11473;SDS011;5793;52.238;13.438;2023-12-04T06:26:35;43.43;;;23.07;;
11473;SDS011;5793;52.238;13.438;2023-12-04T06:29:07;39.47;;;21.70;;
11473;SDS011;5793;52.238;13.438;2023-12-04T06:31:35;41.80;;;22.17;;
11473;SDS011;5793;52.238;13.438;2023-12-04T06:34:03;39.90;;;20.47;;
11473;SDS011;5793;52.238;13.438;2023-12-04T06:36:33;36.37;;;20.60;;
11473;SDS011;5793;52.238;13.438;2023-12-04T06:39:06;40.63;;;20.97;;
11473;SDS011;5793;52.238;13.438;2023-12-04T06:41:38;38.87;;;20.83;;
11473;SDS011;5793;52.238;13.438;2023-12-04T06:44:07;42.37;;;21.20;;
11473;SDS011;5793;52.238;13.438;2023-12-04T06:46:36;38.70;;;21.20;;
11473;SDS011;5793;52.238;13.438;2023-12-04T06:49:05;35.63;;;20.07;;
11473;SDS011;5793;52.238;13.438;2023-12-04T06:51:36;41.20;;;22.87;;
11473;SDS011;5793;52.238;13.438;2023-12-04T06:54:04;43.13;;;23.80;;
11473;SDS011;5793;52.238;13.438;2023-12-04T06:56:33;39.80;;;21.60;;
11473;SDS011;5793;52.238;13.438;2023-12-04T06:59:01;43.73;;;23.23;;
11473;SDS011;5793;52.238;13.438;2023-12-04T07:01:29;40.63;;;24.37;;
11473;SDS011;5793;52.238;13.438;2023-12-04T07:03:57;37.07;;;20.60;;
11473;SDS011;5793;52.238;13.438;2023-12-04T07:06:25;40.77;;;21.10;;
11473;SDS011;5793;52.238;13.438;2023-12-04T07:08:53;37.50;;;20.10;;
11473;SDS011;5793;52.238;13.438;2023-12-04T07:11:21;34.73;;;19.27;;
11473;SDS011;5793;52.238;13.438;2023-12-04T07:13:50;37.03;;;21.27;;
11473;SDS011;5793;52.238;13.438;2023-12-04T07:16:18;36.70;;;20.00;;
11473;SDS011;5793;52.238;13.438;2023-12-04T07:18:46;37.17;;;21.53;;
11473;SDS011;5793;52.238;13.438;2023-12-04T07:21:14;37.80;;;20.50;;
11473;SDS011;5793;52.238;13.438;2023-12-04T07:23:42;37.20;;;19.40;;
11473;SDS011;5793;52.238;13.438;2023-12-04T07:26:10;37.43;;;20.37;;
11473;SDS011;5793;52.238;13.438;2023-12-04T07:28:38;33.63;;;20.03;;
11473;SDS011;5793;52.238;13.438;2023-12-04T07:31:07;35.30;;;20.93;;
11473;SDS011;5793;52.238;13.438;2023-12-04T07:33:35;35.03;;;20.63;;
11473;SDS011;5793;52.238;13.438;2023-12-04T07:36:03;31.40;;;18.50;;
11473;SDS011;5793;52.238;13.438;2023-12-04T07:38:32;30.97;;;17.93;;
11473;SDS011;5793;52.238;13.438;2023-12-04T07:41:00;31.43;;;18.37;;
11473;SDS011;5793;52.238;13.438;2023-12-04T07:43:28;33.27;;;19.30;;
11473;SDS011;5793;52.238;13.438;2023-12-04T07:45:55;27.63;;;16.80;;
11473;SDS011;5793;52.238;13.438;2023-12-04T07:48:25;30.43;;;17.37;;
11473;SDS011;5793;52.238;13.438;2023-12-04T07:50:54;29.13;;;16.30;;
11473;SDS011;5793;52.238;13.438;2023-12-04T07:53:22;28.47;;;15.67;;
11473;SDS011;5793;52.238;13.438;2023-12-04T07:55:50;27.03;;;15.87;;
11473;SDS011;5793;52.238;13.438;2023-12-04T07:58:18;27.87;;;16.00;;
11473;SDS011;5793;52.238;13.438;2023-12-04T08:00:46;27.60;;;16.17;;
11473;SDS011;5793;52.238;13.438;2023-12-04T08:03:15;26.17;;;15.57;;
11473;SDS011;5793;52.238;13.438;2023-12-04T08:05:44;26.73;;;15.07;;
11473;SDS011;5793;52.238;13.438;2023-12-04T08:08:12;25.77;;;15.90;;
11473;SDS011;5793;52.238;13.438;2023-12-04T08:10:41;23.43;;;14.30;;
11473;SDS011;5793;52.238;13.438;2023-12-04T08:13:09;24.33;;;13.60;;
11473;SDS011;5793;52.238;13.438;2023-12-04T08:15:37;23.80;;;14.97;;
11473;SDS011;5793;52.238;13.438;2023-12-04T08:18:05;26.67;;;14.97;;
11473;SDS011;5793;52.238;13.438;2023-12-04T08:20:33;23.70;;;13.37;;
11473;SDS011;5793;52.238;13.438;2023-12-04T08:23:07;24.60;;;14.47;;
11473;SDS011;5793;52.238;13.438;2023-12-04T08:25:36;25.43;;;14.93;;
11473;SDS011;5793;52.238;13.438;2023-12-04T08:28:05;32.27;;;18.27;;
11473;SDS011;5793;52.238;13.438;2023-12-04T08:30:35;25.33;;;15.33;;
11473;SDS011;5793;52.238;13.438;2023-12-04T08:33:03;23.53;;;14.00;;
11473;SDS011;5793;52.238;13.438;2023-12-04T08:35:31;21.33;;;13.57;;
11473;SDS011;5793;52.238;13.438;2023-12-04T08:37:59;20.83;;;13.20;;
11473;SDS011;5793;52.238;13.438;2023-12-04T08:40:29;22.20;;;12.87;;
11473;SDS011;5793;52.238;13.438;2023-12-04T08:42:57;20.70;;;12.37;;
11473;SDS011;5793;52.238;13.438;2023-12-04T08:45:25;23.00;;;14.47;;
11473;SDS011;5793;52.238;13.438;2023-12-04T08:47:53;24.33;;;14.13;;
11473;SDS011;5793;52.238;13.438;2023-12-04T08:50:21;21.53;;;13.67;;
11473;SDS011;5793;52.238;13.438;2023-12-04T08:52:51;23.07;;;14.20;;
11473;SDS011;5793;52.238;13.438;2023-12-04T08:55:19;23.83;;;13.87;;
11473;SDS011;5793;52.238;13.438;2023-12-04T08:57:48;24.17;;;14.27;;
11473;SDS011;5793;52.238;13.438;2023-12-04T09:00:16;23.53;;;14.80;;
11473;SDS011;5793;52.238;13.438;2023-12-04T09:02:45;25.17;;;14.77;;
11473;SDS011;5793;52.238;13.438;2023-12-04T09:05:23;22.70;;;14.57;;
11473;SDS011;5793;52.238;13.438;2023-12-04T09:07:51;23.20;;;14.57;;
11473;SDS011;5793;52.238;13.438;2023-12-04T09:10:22;24.17;;;15.17;;
11473;SDS011;5793;52.238;13.438;2023-12-04T09:13:11;24.97;;;15.87;;
11473;SDS011;5793;52.238;13.438;2023-12-04T09:15:39;25.80;;;16.40;;
11473;SDS011;5793;52.238;13.438;2023-12-04T09:18:07;24.90;;;15.97;;
11473;SDS011;5793;52.238;13.438;2023-12-04T09:20:35;26.47;;;15.80;;
11473;SDS011;5793;52.238;13.438;2023-12-04T09:23:03;23.50;;;14.10;;
11473;SDS011;5793;52.238;13.438;2023-12-04T09:25:34;23.23;;;14.00;;
11473;SDS011;5793;52.238;13.438;2023-12-04T09:28:03;24.67;;;16.10;;
11473;SDS011;5793;52.238;13.438;2023-12-04T09:30:33;24.20;;;14.37;;
11473;SDS011;5793;52.238;13.438;2023-12-04T09:33:01;24.63;;;15.60;;
11473;SDS011;5793;52.238;13.438;2023-12-04T09:35:29;23.43;;;14.83;;
11473;SDS011;5793;52.238;13.438;2023-12-04T09:37:57;23.57;;;14.53;;
11473;SDS011;5793;52.238;13.438;2023-12-04T09:40:25;20.70;;;13.00;;
11473;SDS011;5793;52.238;13.438;2023-12-04T09:42:53;24.10;;;14.23;;
11473;SDS011;5793;52.238;13.438;2023-12-04T09:45:22;18.83;;;12.23;;
11473;SDS011;5793;52.238;13.438;2023-12-04T09:47:52;19.70;;;12.90;;
11473;SDS011;5793;52.238;13.438;2023-12-04T09:50:22;16.13;;;11.40;;
11473;SDS011;5793;52.238;13.438;2023-12-04T09:52:50;18.67;;;11.60;;
11473;SDS011;5793;52.238;13.438;2023-12-04T09:55:19;17.37;;;12.10;;
11473;SDS011;5793;52.238;13.438;2023-12-04T09:57:47;19.87;;;12.83;;
11473;SDS011;5793;52.238;13.438;2023-12-04T10:00:15;17.63;;;12.27;;
11473;SDS011;5793;52.238;13.438;2023-12-04T10:02:44;18.50;;;12.47;;
11473;SDS011;5793;52.238;13.438;2023-12-04T10:05:13;20.30;;;13.10;;
11473;SDS011;5793;52.238;13.438;2023-12-04T10:07:41;17.87;;;11.93;;
11473;SDS011;5793;52.238;13.438;2023-12-04T10:10:09;18.93;;;12.67;;
11473;SDS011;5793;52.238;13.438;2023-12-04T10:12:37;19.17;;;12.37;;
11473;SDS011;5793;52.238;13.438;2023-12-04T10:15:06;20.90;;;12.80;;
11473;SDS011;5793;52.238;13.438;2023-12-04T10:17:36;19.23;;;11.67;;
11473;SDS011;5793;52.238;13.438;2023-12-04T10:20:07;18.77;;;12.60;;
11473;SDS011;5793;52.238;13.438;2023-12-04T10:22:52;17.23;;;12.03;;
11473;SDS011;5793;52.238;13.438;2023-12-04T10:25:20;17.03;;;11.47;;
11473;SDS011;5793;52.238;13.438;2023-12-04T10:27:50;17.93;;;12.37;;
11473;SDS011;5793;52.238;13.438;2023-12-04T10:30:25;19.47;;;12.87;;
11473;SDS011;5793;52.238;13.438;2023-12-04T10:32:55;18.87;;;12.13;;
11473;SDS011;5793;52.238;13.438;2023-12-04T10:35:28;18.77;;;12.13;;
11473;SDS011;5793;52.238;13.438;2023-12-04T10:37:58;17.20;;;10.93;;
11473;SDS011;5793;52.238;13.438;2023-12-04T10:40:27;17.90;;;11.83;;
11473;SDS011;5793;52.238;13.438;2023-12-04T10:43:09;18.50;;;12.00;;
11473;SDS011;5793;52.238;13.438;2023-12-04T10:45:39;20.10;;;13.53;;
11473;SDS011;5793;52.238;13.438;2023-12-04T10:48:08;17.17;;;11.83;;
11473;SDS011;5793;52.238;13.438;2023-12-04T10:50:38;18.03;;;12.27;;
11473;SDS011;5793;52.238;13.438;2023-12-04T10:53:09;16.33;;;11.17;;
11473;SDS011;5793;52.238;13.438;2023-12-04T10:55:38;18.63;;;11.90;;
11473;SDS011;5793;52.238;13.438;2023-12-04T10:58:08;14.83;;;10.60;;
11473;SDS011;5793;52.238;13.438;2023-12-04T11:00:38;19.03;;;11.87;;
11473;SDS011;5793;52.238;13.438;2023-12-04T11:03:08;18.00;;;10.80;;
11473;SDS011;5793;52.238;13.438;2023-12-04T11:05:40;15.97;;;10.43;;
11473;SDS011;5793;52.238;13.438;2023-12-04T11:08:11;14.43;;;10.57;;
11473;SDS011;5793;52.238;13.438;2023-12-04T11:10:45;14.17;;;9.67;;
11473;SDS011;5793;52.238;13.438;2023-12-04T11:13:25;15.80;;;10.70;;
11473;SDS011;5793;52.238;13.438;2023-12-04T11:15:56;16.70;;;11.03;;
11473;SDS011;5793;52.238;13.438;2023-12-04T11:18:27;16.00;;;10.93;;
11473;SDS011;5793;52.238;13.438;2023-12-04T11:21:03;16.90;;;10.57;;
11473;SDS011;5793;52.238;13.438;2023-12-04T11:23:35;15.33;;;10.60;;
11473;SDS011;5793;52.238;13.438;2023-12-04T11:26:04;16.53;;;11.50;;
11473;SDS011;5793;52.238;13.438;2023-12-04T11:28:34;16.33;;;10.63;;
11473;SDS011;5793;52.238;13.438;2023-12-04T11:31:05;16.10;;;10.17;;
11473;SDS011;5793;52.238;13.438;2023-12-04T11:33:34;14.33;;;9.77;;
11473;SDS011;5793;52.238;13.438;2023-12-04T11:36:06;13.90;;;9.67;;
11473;SDS011;5793;52.238;13.438;2023-12-04T11:38:43;15.50;;;10.03;;
11473;SDS011;5793;52.238;13.438;2023-12-04T11:41:15;13.77;;;9.33;;
11473;SDS011;5793;52.238;13.438;2023-12-04T11:43:50;15.53;;;9.87;;
11473;SDS011;5793;52.238;13.438;2023-12-04T11:46:19;14.57;;;10.40;;
11473;SDS011;5793;52.238;13.438;2023-12-04T11:48:49;13.63;;;9.07;;
11473;SDS011;5793;52.238;13.438;2023-12-04T11:54:16;17.40;;;10.47;;
11473;SDS011;5793;52.238;13.438;2023-12-04T11:56:58;15.43;;;10.37;;
11473;SDS011;5793;52.238;13.438;2023-12-04T11:59:27;15.13;;;10.30;;
11473;SDS011;5793;52.238;13.438;2023-12-04T12:01:55;15.87;;;10.10;;
11473;SDS011;5793;52.238;13.438;2023-12-04T12:04:25;16.07;;;10.20;;
11473;SDS011;5793;52.238;13.438;2023-12-04T12:06:57;16.00;;;10.73;;
11473;SDS011;5793;52.238;13.438;2023-12-04T12:09:30;13.57;;;10.03;;
11473;SDS011;5793;52.238;13.438;2023-12-04T12:11:58;14.17;;;10.17;;
11473;SDS011;5793;52.238;13.438;2023-12-04T12:14:27;16.27;;;10.73;;
11473;SDS011;5793;52.238;13.438;2023-12-04T12:16:57;15.17;;;9.97;;
11473;SDS011;5793;52.238;13.438;2023-12-04T12:19:26;17.23;;;10.33;;
11473;SDS011;5793;52.238;13.438;2023-12-04T12:21:55;14.07;;;9.80;;
11473;SDS011;5793;52.238;13.438;2023-12-04T12:24:23;15.13;;;10.60;;
11473;SDS011;5793;52.238;13.438;2023-12-04T12:26:54;17.20;;;10.77;;
11473;SDS011;5793;52.238;13.438;2023-12-04T12:29:22;17.27;;;11.47;;
11473;SDS011;5793;52.238;13.438;2023-12-04T12:31:50;13.83;;;9.67;;
11473;SDS011;5793;52.238;13.438;2023-12-04T12:34:18;16.03;;;10.87;;
11473;SDS011;5793;52.238;13.438;2023-12-04T12:36:46;15.60;;;10.67;;
11473;SDS011;5793;52.238;13.438;2023-12-04T12:39:14;15.93;;;10.77;;
11473;SDS011;5793;52.238;13.438;2023-12-04T12:41:46;16.67;;;11.53;;
11473;SDS011;5793;52.238;13.438;2023-12-04T12:44:16;15.60;;;11.27;;
11473;SDS011;5793;52.238;13.438;2023-12-04T12:46:46;17.43;;;11.43;;
11473;SDS011;5793;52.238;13.438;2023-12-04T12:49:16;16.27;;;10.87;;
11473;SDS011;5793;52.238;13.438;2023-12-04T12:52:01;15.87;;;11.23;;
11473;SDS011;5793;52.238;13.438;2023-12-04T12:54:30;15.90;;;10.53;;
11473;SDS011;5793;52.238;13.438;2023-12-04T12:56:59;14.63;;;10.20;;
11473;SDS011;5793;52.238;13.438;2023-12-04T12:59:30;14.40;;;10.03;;
11473;SDS011;5793;52.238;13.438;2023-12-04T13:01:58;14.97;;;10.87;;
11473;SDS011;5793;52.238;13.438;2023-12-04T13:04:33;14.97;;;9.77;;
11473;SDS011;5793;52.238;13.438;2023-12-04T13:07:02;15.43;;;10.20;;
11473;SDS011;5793;52.238;13.438;2023-12-04T13:09:32;15.43;;;10.87;;
11473;SDS011;5793;52.238;13.438;2023-12-04T13:12:02;16.47;;;10.57;;
11473;SDS011;5793;52.238;13.438;2023-12-04T13:14:31;15.17;;;10.83;;
11473;SDS011;5793;52.238;13.438;2023-12-04T13:17:01;16.00;;;10.77;;
11473;SDS011;5793;52.238;13.438;2023-12-04T13:19:30;17.00;;;11.40;;
11473;SDS011;5793;52.238;13.438;2023-12-04T13:22:00;17.37;;;11.87;;
11473;SDS011;5793;52.238;13.438;2023-12-04T13:24:30;16.43;;;11.70;;
11473;SDS011;5793;52.238;13.438;2023-12-04T13:26:58;17.27;;;11.47;;
11473;SDS011;5793;52.238;13.438;2023-12-04T13:29:26;18.47;;;11.40;;
11473;SDS011;5793;52.238;13.438;2023-12-04T13:31:55;16.47;;;11.10;;
11473;SDS011;5793;52.238;13.438;2023-12-04T13:34:23;17.57;;;11.53;;
11473;SDS011;5793;52.238;13.438;2023-12-04T13:36:51;19.00;;;12.17;;
11473;SDS011;5793;52.238;13.438;2023-12-04T13:39:20;16.37;;;11.60;;
11473;SDS011;5793;52.238;13.438;2023-12-04T13:41:54;19.13;;;13.03;;
11473;SDS011;5793;52.238;13.438;2023-12-04T13:44:36;19.97;;;12.93;;
11473;SDS011;5793;52.238;13.438;2023-12-04T13:47:05;17.50;;;11.93;;
11473;SDS011;5793;52.238;13.438;2023-12-04T13:49:33;18.90;;;12.37;;
11473;SDS011;5793;52.238;13.438;2023-12-04T13:52:01;20.33;;;13.10;;
11473;SDS011;5793;52.238;13.438;2023-12-04T13:54:33;18.70;;;12.17;;
11473;SDS011;5793;52.238;13.438;2023-12-04T13:57:10;17.60;;;11.67;;
11473;SDS011;5793;52.238;13.438;2023-12-04T13:59:45;20.53;;;13.23;;
11473;SDS011;5793;52.238;13.438;2023-12-04T14:02:14;21.70;;;13.40;;
11473;SDS011;5793;52.238;13.438;2023-12-04T14:04:42;19.07;;;12.13;;
11473;SDS011;5793;52.238;13.438;2023-12-04T14:07:10;22.03;;;13.63;;
11473;SDS011;5793;52.238;13.438;2023-12-04T14:09:40;28.13;;;15.20;;
11473;SDS011;5793;52.238;13.438;2023-12-04T14:12:08;22.40;;;14.50;;
11473;SDS011;5793;52.238;13.438;2023-12-04T14:14:36;27.43;;;16.53;;
11473;SDS011;5793;52.238;13.438;2023-12-04T14:17:04;27.43;;;16.00;;
11473;SDS011;5793;52.238;13.438;2023-12-04T14:19:35;25.17;;;15.57;;
11473;SDS011;5793;52.238;13.438;2023-12-04T14:22:05;27.80;;;15.70;;
11473;SDS011;5793;52.238;13.438;2023-12-04T14:24:33;23.57;;;15.17;;
11473;SDS011;5793;52.238;13.438;2023-12-04T14:27:01;21.57;;;13.40;;
11473;SDS011;5793;52.238;13.438;2023-12-04T14:29:31;22.70;;;14.70;;
11473;SDS011;5793;52.238;13.438;2023-12-04T14:32:00;22.60;;;13.73;;
11473;SDS011;5793;52.238;13.438;2023-12-04T14:34:27;20.80;;;13.90;;